createdAt,value
2022-08-17T00:01:51.879Z,17.50
2022-08-17T00:04:22.856Z,17.60
2022-08-17T00:06:53.542Z,17.60
2022-08-17T00:09:23.567Z,17.50
2022-08-17T00:12:41.925Z,17.40
2022-08-17T00:17:17.036Z,17.40
2022-08-17T00:19:47.077Z,17.30
2022-08-17T00:22:35.207Z,17.10
2022-08-17T00:25:09.853Z,17.00
2022-08-17T00:27:43.121Z,17.00
2022-08-17T00:30:16.588Z,16.90
2022-08-17T00:33:23.451Z,17.10
2022-08-17T00:35:41.980Z,17.20
2022-08-17T00:38:12.816Z,17.20
2022-08-17T00:40:45.765Z,17.30
2022-08-17T00:43:24.172Z,17.20
2022-08-17T00:45:54.322Z,17.20
2022-08-17T00:48:29.921Z,17.20
2022-08-17T00:51:13.429Z,17.30
2022-08-17T00:53:50.382Z,17.30
2022-08-17T00:56:27.912Z,17.20
2022-08-17T00:59:01.017Z,17.10
2022-08-17T01:01:32.174Z,17.10
2022-08-17T01:04:05.188Z,17.00
2022-08-17T01:06:36.619Z,17.00
2022-08-17T01:09:08.728Z,17.00
2022-08-17T01:11:40.642Z,17.00
2022-08-17T01:14:13.706Z,17.00
2022-08-17T01:16:43.773Z,17.00
2022-08-17T01:19:23.906Z,17.00
2022-08-17T01:22:03.933Z,17.00
2022-08-17T01:24:38.780Z,16.90
2022-08-17T01:27:10.484Z,16.90
2022-08-17T01:29:46.457Z,16.90
2022-08-17T01:32:18.029Z,16.80
2022-08-17T01:34:50.998Z,16.80
2022-08-17T01:37:24.054Z,16.80
2022-08-17T01:40:02.972Z,16.90
2022-08-17T01:42:42.637Z,16.70
2022-08-17T01:45:19.481Z,16.70
2022-08-17T01:47:49.605Z,16.50
2022-08-17T01:50:25.361Z,16.50
2022-08-17T01:53:02.669Z,16.50
2022-08-17T01:55:42.765Z,16.50
2022-08-17T01:58:12.923Z,16.30
2022-08-17T02:00:51.734Z,16.20
2022-08-17T02:03:32.952Z,16.30
2022-08-17T02:06:03.325Z,16.30
2022-08-17T02:08:39.191Z,16.30
2022-08-17T02:11:25.626Z,16.00
2022-08-17T02:14:02.516Z,16.00
2022-08-17T02:16:36.962Z,16.00
2022-08-17T02:19:10.895Z,15.90
2022-08-17T02:21:42.978Z,16.10
2022-08-17T02:24:19.511Z,16.10
2022-08-17T02:27:12.111Z,16.00
2022-08-17T02:29:42.175Z,16.10
2022-08-17T02:32:27.665Z,16.20
2022-08-17T02:34:59.394Z,16.20
2022-08-17T02:37:30.538Z,16.10
2022-08-17T02:40:01.403Z,16.30
2022-08-17T02:42:38.453Z,16.40
2022-08-17T02:45:13.479Z,16.50
2022-08-17T02:47:44.345Z,16.50
2022-08-17T02:50:18.876Z,16.40
2022-08-17T02:53:02.306Z,16.40
2022-08-17T02:55:36.747Z,16.20
2022-08-17T02:58:10.591Z,16.20
2022-08-17T03:00:47.045Z,16.20
2022-08-17T03:03:21.191Z,16.20
2022-08-17T03:05:53.791Z,16.20
2022-08-17T03:08:25.568Z,16.20
2022-08-17T03:10:56.054Z,16.10
2022-08-17T03:13:30.817Z,16.00
2022-08-17T03:16:00.843Z,15.90
2022-08-17T03:18:30.962Z,15.90
2022-08-17T03:21:04.603Z,15.90
2022-08-17T03:23:40.964Z,16.00
2022-08-17T03:26:12.271Z,15.80
2022-08-17T03:28:47.998Z,15.90
2022-08-17T03:31:18.464Z,16.00
2022-08-17T03:33:48.422Z,16.10
2022-08-17T03:36:18.402Z,16.10
2022-08-17T03:38:48.397Z,16.20
2022-08-17T03:41:21.220Z,16.10
2022-08-17T03:43:53.835Z,16.00
2022-08-17T03:46:36.406Z,16.10
2022-08-17T03:49:22.147Z,16.00
2022-08-17T03:52:04.619Z,16.10
2022-08-17T03:54:47.352Z,16.10
2022-08-17T03:57:19.223Z,16.00
2022-08-17T03:59:52.391Z,15.70
2022-08-17T04:02:27.049Z,15.60
2022-08-17T04:04:57.190Z,15.70
2022-08-17T04:07:32.656Z,15.80
2022-08-17T04:10:02.718Z,15.70
2022-08-17T04:12:46.842Z,15.70
2022-08-17T04:15:20.122Z,15.80
2022-08-17T04:17:50.675Z,15.90
2022-08-17T04:20:24.448Z,15.80
2022-08-17T04:23:04.933Z,15.70
2022-08-17T04:25:38.006Z,15.40
2022-08-17T04:28:15.551Z,15.30
2022-08-17T04:30:50.223Z,15.30
2022-08-17T04:33:24.680Z,15.30
2022-08-17T04:35:58.083Z,15.20
2022-08-17T04:38:31.053Z,15.30
2022-08-17T04:41:15.024Z,15.20
2022-08-17T04:43:48.697Z,15.50
2022-08-17T04:46:24.904Z,15.80
2022-08-17T04:48:59.023Z,15.90
2022-08-17T04:51:33.978Z,16.00
2022-08-17T04:54:08.246Z,16.20
2022-08-17T04:56:39.011Z,16.30
2022-08-17T04:59:15.489Z,16.50
2022-08-17T05:01:51.043Z,16.50
2022-08-17T05:04:34.361Z,16.60
2022-08-17T05:07:05.925Z,16.70
2022-08-17T05:09:35.904Z,17.20
2022-08-17T05:12:07.343Z,17.80
2022-08-17T05:14:37.359Z,18.40
2022-08-17T05:17:11.270Z,18.90
2022-08-17T05:19:41.732Z,18.80
2022-08-17T05:22:11.694Z,18.60
2022-08-17T05:24:43.773Z,18.50
2022-08-17T05:27:23.701Z,18.50
2022-08-17T05:29:53.715Z,18.40
2022-08-17T05:32:37.366Z,18.50
2022-08-17T05:35:11.676Z,18.50
2022-08-17T05:37:41.744Z,18.70
2022-08-17T05:40:13.180Z,19.30
2022-08-17T05:42:43.677Z,20.40
2022-08-17T05:45:15.743Z,21.40
2022-08-17T05:47:50.425Z,22.50
2022-08-17T05:50:31.266Z,23.50
2022-08-17T05:53:16.289Z,24.20
2022-08-17T05:55:58.045Z,24.90
2022-08-17T05:58:40.229Z,25.70
2022-08-17T06:06:44.824Z,28.20
2022-08-17T06:09:33.979Z,28.30
2022-08-17T06:12:23.130Z,28.40
2022-08-17T06:15:24.670Z,28.90
2022-08-17T06:18:01.182Z,29.10
2022-08-17T06:20:48.199Z,28.90
2022-08-17T06:23:28.082Z,28.60
2022-08-17T06:26:06.639Z,28.50
2022-08-17T06:28:46.396Z,28.60
2022-08-17T06:31:29.328Z,29.10
2022-08-17T06:34:03.119Z,30.10
2022-08-17T06:36:58.285Z,30.20
2022-08-17T06:39:47.609Z,29.70
2022-08-17T06:42:55.018Z,29.70
2022-08-17T06:45:32.695Z,29.40
2022-08-17T06:48:13.523Z,29.40
2022-08-17T06:50:53.833Z,29.80
2022-08-17T06:53:34.697Z,30.40
2022-08-17T06:56:11.642Z,31.50
2022-08-17T06:58:45.959Z,32.70
2022-08-17T07:01:24.345Z,33.30
2022-08-17T07:04:05.178Z,32.90
2022-08-17T07:06:51.909Z,32.30
2022-08-17T07:09:32.123Z,31.80
2022-08-17T07:12:12.761Z,32.50
2022-08-17T07:14:52.348Z,33.30
2022-08-17T07:17:46.461Z,33.70
2022-08-17T07:20:25.198Z,34.40
2022-08-17T07:23:08.692Z,34.60
2022-08-17T07:25:41.335Z,34.60
2022-08-17T07:28:13.026Z,34.10
2022-08-17T07:30:50.912Z,34.20
2022-08-17T07:33:29.609Z,34.60
2022-08-17T07:36:01.676Z,34.30
2022-08-17T07:38:35.601Z,34.70
2022-08-17T07:41:12.646Z,35.30
2022-08-17T07:43:52.987Z,35.90
2022-08-17T07:46:38.231Z,36.30
2022-08-17T07:49:40.421Z,36.70
2022-08-17T07:55:03.483Z,37.40
2022-08-17T07:57:40.376Z,37.40
2022-08-17T08:00:24.369Z,37.20
2022-08-17T08:03:27.265Z,36.00
2022-08-17T08:06:06.220Z,34.60
2022-08-17T08:08:43.309Z,33.60
2022-08-17T08:11:18.127Z,32.90
2022-08-17T08:13:50.724Z,32.20
2022-08-17T08:16:31.837Z,31.30
2022-08-17T08:19:04.574Z,30.70
2022-08-17T08:21:50.576Z,30.30
2022-08-17T08:24:53.609Z,29.90
2022-08-17T08:27:40.155Z,29.80
2022-08-17T08:30:18.363Z,29.60
2022-08-17T08:33:10.612Z,29.60
2022-08-17T08:35:49.144Z,29.90
2022-08-17T08:38:36.772Z,30.50
2022-08-17T08:41:39.724Z,31.00
2022-08-17T08:44:59.473Z,31.30
2022-08-17T08:47:45.150Z,31.10
2022-08-17T08:50:37.078Z,30.60
2022-08-17T08:53:23.634Z,30.60
2022-08-17T08:56:02.706Z,30.40
2022-08-17T08:58:45.211Z,30.20
2022-08-17T09:01:24.068Z,29.90
2022-08-17T09:04:44.929Z,29.80
2022-08-17T09:07:36.597Z,29.40
2022-08-17T09:10:18.360Z,28.90
2022-08-17T09:13:09.260Z,28.70
2022-08-17T09:15:47.805Z,28.50
2022-08-17T09:19:01.090Z,28.40
2022-08-17T09:21:29.688Z,28.40
2022-08-17T09:24:13.067Z,28.50
2022-08-17T09:26:51.464Z,28.60
2022-08-17T09:29:24.520Z,28.70
2022-08-17T09:31:59.701Z,28.50
2022-08-17T09:34:40.660Z,28.50
2022-08-17T09:37:28.414Z,28.50
2022-08-17T09:40:18.228Z,28.50
2022-08-17T09:42:52.977Z,28.40
2022-08-17T09:45:34.672Z,28.30
2022-08-17T09:48:14.811Z,28.20
2022-08-17T09:51:05.724Z,28.10
2022-08-17T09:53:40.766Z,27.90
2022-08-17T09:56:31.862Z,28.00
2022-08-17T09:59:27.581Z,28.30
2022-08-17T10:02:42.944Z,28.80
2022-08-17T10:05:23.777Z,29.30
2022-08-17T10:08:08.703Z,30.30
2022-08-17T10:10:58.817Z,30.80
2022-08-17T10:13:52.717Z,30.60
2022-08-17T10:16:35.446Z,30.40
2022-08-17T10:19:18.694Z,30.40
2022-08-17T10:22:14.667Z,30.10
2022-08-17T10:25:22.824Z,30.10
2022-08-17T10:28:03.483Z,30.30
2022-08-17T10:30:40.577Z,30.40
2022-08-17T10:33:20.310Z,30.50
2022-08-17T10:36:08.735Z,30.40
2022-08-17T10:38:48.698Z,30.40
2022-08-17T10:41:32.572Z,30.70
2022-08-17T10:44:39.396Z,30.70
2022-08-17T10:47:14.547Z,30.70
2022-08-17T10:49:49.649Z,30.70
2022-08-17T10:52:55.146Z,30.50
2022-08-17T10:55:25.854Z,30.20
2022-08-17T10:58:24.727Z,30.10
2022-08-17T11:01:03.860Z,30.10
2022-08-17T11:03:34.904Z,30.00
2022-08-17T11:06:20.312Z,30.40
2022-08-17T11:09:29.023Z,31.00
2022-08-17T11:12:21.972Z,31.30
2022-08-17T11:15:12.653Z,31.50
2022-08-17T11:18:41.170Z,31.30
2022-08-17T11:21:47.696Z,31.20
2022-08-17T11:24:24.187Z,31.50
2022-08-17T11:27:12.187Z,31.40
2022-08-17T11:29:59.536Z,31.00
2022-08-17T11:32:47.129Z,30.70
2022-08-17T11:35:47.187Z,30.40
2022-08-17T11:38:29.142Z,29.70
2022-08-17T11:41:29.043Z,28.50
2022-08-17T11:44:41.278Z,27.60
2022-08-17T11:47:38.433Z,27.30
2022-08-17T11:51:03.701Z,27.00
2022-08-17T11:54:32.348Z,26.70
2022-08-17T11:57:40.359Z,26.60
2022-08-17T12:00:56.468Z,26.70
2022-08-17T12:03:53.787Z,26.50
2022-08-17T12:06:45.037Z,26.50
2022-08-17T12:09:21.645Z,26.60
2022-08-17T12:12:13.287Z,26.70
2022-08-17T12:15:09.617Z,27.20
2022-08-17T12:17:48.436Z,27.80
2022-08-17T12:20:27.933Z,28.90
2022-08-17T12:23:09.624Z,30.00
2022-08-17T12:25:47.717Z,30.60
2022-08-17T12:28:30.363Z,30.30
2022-08-17T12:31:06.556Z,30.50
2022-08-17T12:33:46.110Z,31.10
2022-08-17T12:36:21.612Z,31.20
2022-08-17T12:39:04.614Z,31.40
2022-08-17T12:41:48.095Z,32.10
2022-08-17T12:44:24.121Z,32.60
2022-08-17T12:47:04.711Z,32.80
2022-08-17T12:49:42.457Z,32.80
2022-08-17T12:52:19.989Z,33.10
2022-08-17T12:55:00.037Z,33.30
2022-08-17T12:57:35.167Z,33.50
2022-08-17T13:00:17.508Z,33.70
2022-08-17T13:02:53.580Z,34.00
2022-08-17T13:05:34.100Z,34.60
2022-08-17T13:08:07.400Z,35.70
2022-08-17T13:10:39.716Z,36.80
2022-08-17T13:13:23.952Z,37.00
2022-08-17T13:16:01.172Z,37.30
2022-08-17T13:18:44.946Z,37.10
2022-08-17T13:21:30.659Z,37.00
2022-08-17T13:24:05.015Z,37.00
2022-08-17T13:26:40.822Z,37.10
2022-08-17T13:29:24.576Z,38.20
2022-08-17T13:32:04.271Z,39.10
2022-08-17T13:35:12.362Z,39.60
2022-08-17T13:37:38.605Z,38.90
2022-08-17T13:40:34.602Z,37.70
2022-08-17T13:43:06.861Z,37.80
2022-08-17T13:45:55.713Z,39.30
2022-08-17T13:48:32.094Z,39.10
2022-08-17T13:51:29.581Z,38.50
2022-08-17T13:54:24.128Z,37.30
2022-08-17T13:57:02.915Z,38.00
2022-08-17T13:59:54.332Z,37.90
2022-08-17T14:02:28.742Z,38.00
2022-08-17T14:05:02.096Z,37.50
2022-08-17T14:07:40.771Z,37.60
2022-08-17T14:10:17.858Z,37.90
2022-08-17T14:12:50.250Z,38.10
2022-08-17T14:15:55.695Z,36.50
2022-08-17T14:18:50.526Z,36.20
2022-08-17T14:21:11.362Z,36.30
2022-08-17T14:23:42.070Z,36.80
2022-08-17T14:26:21.774Z,36.30
2022-08-17T14:28:56.644Z,36.00
2022-08-17T14:31:27.654Z,36.10
2022-08-17T14:33:58.903Z,36.70
2022-08-17T14:36:31.301Z,36.70
2022-08-17T14:39:01.313Z,36.80
2022-08-17T14:41:34.329Z,37.00
2022-08-17T14:44:04.507Z,38.00
2022-08-17T14:46:35.417Z,39.00
2022-08-17T14:49:05.421Z,38.80
2022-08-17T14:51:35.525Z,37.70
2022-08-17T14:54:32.849Z,37.20
2022-08-17T14:57:24.528Z,36.90
2022-08-17T14:59:59.293Z,36.80
2022-08-17T15:02:31.204Z,36.20
2022-08-17T15:05:03.128Z,35.80
2022-08-17T15:07:33.557Z,35.80
2022-08-17T15:10:04.519Z,36.10
2022-08-17T15:12:39.465Z,36.00
2022-08-17T15:15:13.204Z,35.50
2022-08-17T15:17:46.034Z,35.90
2022-08-17T15:20:21.005Z,36.20
2022-08-17T15:22:55.295Z,36.20
2022-08-17T15:25:27.561Z,35.90
2022-08-17T15:28:00.766Z,35.80
2022-08-17T15:30:31.156Z,36.00
2022-08-17T15:33:03.203Z,35.70
2022-08-17T15:35:36.285Z,35.20
2022-08-17T15:38:12.156Z,34.80
2022-08-17T15:40:46.553Z,35.20
2022-08-17T15:43:27.380Z,35.40
2022-08-17T15:46:04.054Z,35.00
2022-08-17T15:48:46.182Z,34.70
2022-08-17T15:51:20.762Z,34.60
2022-08-17T15:53:55.016Z,34.80
2022-08-17T15:56:26.175Z,34.60
2022-08-17T15:58:58.914Z,34.60
2022-08-17T16:02:21.543Z,34.00
2022-08-17T16:04:30.106Z,33.10
2022-08-17T16:07:01.656Z,32.30
2022-08-17T16:09:31.675Z,31.70
2022-08-17T16:12:11.429Z,31.40
2022-08-17T16:14:44.024Z,31.00
2022-08-17T16:17:38.733Z,30.60
2022-08-17T16:20:04.395Z,30.20
2022-08-17T16:22:39.020Z,30.10
2022-08-17T16:25:13.866Z,30.10
2022-08-17T16:27:44.075Z,30.00
2022-08-17T16:30:18.634Z,29.90
2022-08-17T16:32:51.501Z,29.90
2022-08-17T16:35:27.096Z,29.90
2022-08-17T16:38:00.998Z,29.80
2022-08-17T16:40:35.714Z,29.80
2022-08-17T16:43:12.134Z,29.80
2022-08-17T16:45:47.537Z,29.80
2022-08-17T16:48:21.423Z,29.80
2022-08-17T16:51:03.678Z,29.90
2022-08-17T16:53:34.963Z,29.90
2022-08-17T16:56:05.145Z,29.60
2022-08-17T16:58:35.862Z,29.50
2022-08-17T17:01:10.034Z,29.20
2022-08-17T17:03:43.866Z,29.10
2022-08-17T17:06:25.728Z,28.80
2022-08-17T17:09:03.547Z,28.50
2022-08-17T17:11:42.958Z,28.20
2022-08-17T17:14:19.779Z,27.90
2022-08-17T17:17:04.419Z,27.60
2022-08-17T17:19:41.340Z,27.50
2022-08-17T17:22:22.300Z,27.30
2022-08-17T17:25:08.847Z,27.10
2022-08-17T17:27:48.508Z,27.00
2022-08-17T17:30:27.292Z,26.90
2022-08-17T17:33:07.652Z,26.80
2022-08-17T17:35:50.667Z,26.70
2022-08-17T17:38:29.221Z,26.70
2022-08-17T17:41:07.288Z,26.60
2022-08-17T17:43:40.353Z,26.50
2022-08-17T17:46:27.504Z,26.40
2022-08-17T17:49:02.099Z,26.30
2022-08-17T17:52:07.690Z,26.40
2022-08-17T17:54:54.106Z,26.30
2022-08-17T17:57:42.118Z,26.10
2022-08-17T18:00:19.673Z,26.00
2022-08-17T18:03:07.212Z,25.80
2022-08-17T18:06:01.875Z,25.80
2022-08-17T18:08:55.516Z,25.60
2022-08-17T18:12:01.158Z,25.60
2022-08-17T18:14:49.530Z,25.40
2022-08-17T18:17:20.712Z,25.30
2022-08-17T18:19:50.688Z,25.20
2022-08-17T18:22:25.583Z,25.10
2022-08-17T18:24:58.876Z,25.00
2022-08-17T18:27:39.404Z,24.80
2022-08-17T18:30:30.354Z,24.70
2022-08-17T18:33:26.888Z,24.50
2022-08-17T18:35:59.253Z,24.50
2022-08-17T18:38:36.869Z,24.40
2022-08-17T18:41:24.420Z,24.30
2022-08-17T18:44:05.464Z,24.20
2022-08-17T18:46:40.135Z,24.20
2022-08-17T18:49:29.955Z,24.20
2022-08-17T18:52:18.097Z,24.10
2022-08-17T18:55:11.316Z,24.10
2022-08-17T18:57:46.005Z,24.10
2022-08-17T19:00:21.481Z,24.00
2022-08-17T19:02:58.512Z,24.00
2022-08-17T19:05:37.914Z,24.00
2022-08-17T19:08:26.648Z,24.00
2022-08-17T19:11:04.232Z,23.90
2022-08-17T19:13:41.403Z,23.90
2022-08-17T19:16:21.329Z,23.80
2022-08-17T19:19:00.115Z,23.70
2022-08-17T19:21:40.376Z,23.60
2022-08-17T19:24:19.473Z,23.60
2022-08-17T19:27:01.655Z,23.40
2022-08-17T19:29:50.181Z,23.40
2022-08-17T19:32:25.939Z,23.30
2022-08-17T19:34:57.696Z,23.30
2022-08-17T19:37:40.190Z,23.30
2022-08-17T19:40:50.949Z,23.30
2022-08-17T19:43:33.276Z,23.20
2022-08-17T19:46:15.694Z,23.30
2022-08-17T19:48:59.410Z,23.30
2022-08-17T19:51:41.818Z,23.30
2022-08-17T19:54:24.830Z,23.30
2022-08-17T19:57:05.245Z,23.20
2022-08-17T19:59:56.509Z,23.20
2022-08-17T20:02:44.256Z,23.20
2022-08-17T20:05:19.811Z,23.20
2022-08-17T20:08:00.619Z,23.10
2022-08-17T20:10:45.248Z,23.10
2022-08-17T20:13:32.822Z,23.00
2022-08-17T20:16:09.944Z,22.90
2022-08-17T20:18:51.298Z,22.80
2022-08-17T20:21:29.087Z,22.70
2022-08-17T20:24:15.784Z,22.70
2022-08-17T20:26:58.517Z,22.60
2022-08-17T20:29:40.141Z,22.50
2022-08-17T20:32:29.360Z,22.50
2022-08-17T20:35:22.613Z,22.50
2022-08-17T20:38:01.981Z,22.40
2022-08-17T20:40:39.400Z,22.30
2022-08-17T20:43:52.247Z,22.30
2022-08-17T20:46:59.601Z,22.40
2022-08-17T20:49:50.811Z,22.30
2022-08-17T20:52:49.480Z,22.30
2022-08-17T20:55:54.790Z,22.30
2022-08-17T20:58:49.409Z,22.30
2022-08-17T21:01:39.616Z,22.30
2022-08-17T21:04:46.359Z,22.30
2022-08-17T21:07:48.704Z,22.40
2022-08-17T21:10:32.042Z,22.50
2022-08-17T21:13:39.888Z,22.50
2022-08-17T21:16:33.407Z,22.60
2022-08-17T21:19:22.151Z,22.60
2022-08-17T21:22:09.724Z,22.60
2022-08-17T21:24:59.512Z,22.60
2022-08-17T21:27:46.616Z,22.70
2022-08-17T21:30:52.047Z,22.80
2022-08-17T21:33:34.766Z,22.80
2022-08-17T21:36:28.894Z,22.80
2022-08-17T21:39:09.420Z,22.90
2022-08-17T21:41:53.815Z,23.10
2022-08-17T21:44:36.406Z,23.10
2022-08-17T21:47:21.894Z,23.00
2022-08-17T21:49:51.943Z,22.60
2022-08-17T21:52:29.520Z,22.30
2022-08-17T21:55:03.390Z,21.90
2022-08-17T21:57:52.998Z,21.50
2022-08-17T22:00:36.364Z,21.20
2022-08-17T22:03:23.854Z,21.00
2022-08-17T22:05:53.953Z,20.90
2022-08-17T22:08:28.330Z,20.80
2022-08-17T22:11:04.600Z,20.80
2022-08-17T22:13:41.091Z,20.70
2022-08-17T22:16:29.306Z,20.60
2022-08-17T22:19:02.039Z,20.40
2022-08-17T22:21:32.104Z,20.30
2022-08-17T22:24:08.812Z,20.30
2022-08-17T22:27:03.380Z,20.20
2022-08-17T22:30:03.076Z,20.00
2022-08-17T22:32:40.924Z,19.80
2022-08-17T22:35:40.826Z,19.80
2022-08-17T22:38:34.915Z,19.80
2022-08-17T22:41:40.549Z,19.70
2022-08-17T22:44:19.755Z,19.60
2022-08-17T22:47:11.255Z,19.60
2022-08-17T22:49:53.271Z,19.70
2022-08-17T22:52:35.549Z,19.60
2022-08-17T22:55:32.554Z,19.60
2022-08-17T22:58:16.701Z,19.50
2022-08-17T23:00:50.014Z,19.40
2022-08-17T23:03:28.066Z,19.30
2022-08-17T23:06:09.681Z,19.30
2022-08-17T23:08:48.436Z,19.20
2022-08-17T23:11:18.647Z,19.10
2022-08-17T23:13:48.732Z,19.10
2022-08-17T23:16:18.900Z,19.00
2022-08-17T23:18:52.177Z,19.00
2022-08-17T23:21:24.987Z,19.00
2022-08-17T23:23:59.159Z,19.00
2022-08-17T23:26:30.000Z,19.00
2022-08-17T23:29:02.340Z,18.90
2022-08-17T23:31:34.655Z,19.00
2022-08-17T23:34:12.596Z,19.00
2022-08-17T23:36:52.695Z,19.00
2022-08-17T23:39:27.951Z,18.90
2022-08-17T23:41:59.906Z,18.80
2022-08-17T23:44:31.190Z,18.70
2022-08-17T23:47:03.665Z,18.90
2022-08-17T23:49:37.620Z,18.90
2022-08-17T23:52:12.658Z,18.90
2022-08-17T23:54:50.919Z,18.90
2022-08-17T23:57:33.234Z,18.90
